ROMMA est une association bénévole à but non lucratif. Votre soutien est indispensable : ADHERER à ROMMA ou FAIRE un DON

Crest - (26, Drôme)

Vallée de la Drôme (315 m)   Longitude: 5°2' E   Latitude: 44°44' N Station partenaire n°62
 

Détail journalier du     <<     >>

Température Precipitation Humidité Pression Vent Dir Rafale Dir. rafale Ensol.
Heure (°C) (mm) (%) (hPa) (km/h) (km/h) (min)
01:00 4.9075102222NE42NNE0
02:00 4.9074102324NE48NNE0
03:00 4.7074102427SO56SO0
04:00 4.6072102424NE48N0
05:00 4.4073102522NE58NNO0
06:00 4.2072102517NE39NNE0
07:00 4.0072102618NE35NNE0
08:00 3.8071102718NE39NE0
09:00 3.7073102714NE39NE21
10:00 3.8073102717SO34NNE52
11:00 4.4073102722NNE44NE56
12:00 4.9070102624SO44SO60
13:00 5.5066102526SO50NE57
14:00 5.7062102426SO50SO58
15:00 5.4061102429SO55SSO58
16:00 5.1062102330SO52SSO50
17:00 4.3065102326SO44SO6
18:00 3.5070102313SSO29NNE0
19:00 3.5070102321SO34NNO0
20:00 3.5069102321SO40SO0
21:00 3.4069102216SO35NE0
22:00 0.908110234SE18SSO0
23:00 -1.008510234SSO19SSO0
minuit -1.008510232S5SSE0

Graphique du 10-12-2019

 

Serveur OMMA